Prabhu Sakhawat — AVES — position and weather

sailwx.info

Track history (hours):
 
Tides and Currents Weather Stations Pressure Air Temp Water Temp Dewpoint Dewpoint Depression Visibility Wind Speed Wind Dir Waves Ship Positions

Prabhu Sakhawat

Last reported at 2017-Dec-11 00:28 UTC. Time now 2017-Dec-11 00:37 UTC.
Position N 48°57' W 123°44'.

Length 225 m; draft 10.2 m.

Type: Cargo ship. MMSI: 419099500.

Date/timePositionNaut miles runAvg speedWind from/ knotsBaromVisibWave heightAir tempDewpointWater temp
2017-Dec-11 00:28N 48°57' W 123°44'0 0.0
2017-Dec-10 23:56N 48°57' W 123°44'0 0.0
2017-Dec-10 23:15N 48°57' W 123°44'0 0.0
2017-Dec-10 22:56N 48°57' W 123°44'0 0.0
2017-Dec-10 22:29N 48°57' W 123°44'0 0.0
2017-Dec-10 21:54N 48°57' W 123°44'0 0.0
2017-Dec-10 21:17N 48°57' W 123°44'0 0.0
2017-Dec-10 20:32N 48°57' W 123°44'0 0.0
2017-Dec-10 20:29N 48°57' W 123°44'0 0.0
2017-Dec-10 19:58N 48°57' W 123°44'0 0.0
2017-Dec-10 19:20N 48°57' W 123°44'0 0.1
2017-Dec-10 19:00N 48°57' W 123°44'0 0.1
2017-Dec-10 18:27N 48°57' W 123°44'0 0.1
2017-Dec-10 17:58N 48°57' W 123°44'0 0.1
2017-Dec-10 17:30N 48°57' W 123°44'0 0.1
2017-Dec-10 16:59N 48°58' W 123°44'0 0.0
2017-Dec-10 16:29N 48°58' W 123°44'0 0.0
2017-Dec-10 16:00N 48°58' W 123°44'0 0.1
2017-Dec-10 15:30N 48°58' W 123°45'0 0.1
2017-Dec-10 15:00N 48°58' W 123°44'0 0.1
2017-Dec-10 14:29N 48°58' W 123°44'0 0.1
2017-Dec-10 13:57N 48°57' W 123°44'0 0.1
2017-Dec-10 13:30N 48°57' W 123°44'0 0.1
2017-Dec-10 12:59N 48°57' W 123°44'0 0.0
2017-Dec-10 12:30N 48°57' W 123°44'0 0.1
2017-Dec-10 11:55N 48°57' W 123°44'0 0.0
2017-Dec-10 11:30N 48°57' W 123°44'0 0.1
2017-Dec-10 11:00N 48°57' W 123°44'0 0.0
2017-Dec-10 10:29N 48°57' W 123°44'0 0.0
2017-Dec-10 09:56N 48°57' W 123°44'0 0.2
2017-Dec-10 09:29N 48°57' W 123°44'1 2.6
2017-Dec-10 08:59N 48°57' W 123°43'5 7.8
2017-Dec-10 08:24N 48°54' W 123°37'3 7.5
2017-Dec-10 08:00N 48°57' W 123°36'4 7.9
2017-Dec-10 07:30N 48°55' W 123°30'510.2
2017-Dec-10 07:00N 48°52' W 123°25'5 9.4
2017-Dec-10 06:30N 48°48' W 123°20'611.5
2017-Dec-10 06:00N 48°44' W 123°15'612.4
2017-Dec-10 05:30N 48°45' W 123°06'510.3
2017-Dec-10 05:00N 48°49' W 123°01'613.1
2017-Dec-10 04:30N 48°54' W 123°08'612.5
2017-Dec-10 04:00N 48°58' W 123°16'612.3
2017-Dec-10 03:30N 49°02' W 123°22'611.7
2017-Dec-10 03:00N 49°08' W 123°23'713.1
2017-Dec-10 02:30N 49°15' W 123°21'611.7
2017-Dec-10 02:00N 49°19' W 123°16'510.6
2017-Dec-10 01:30N 49°19' W 123°08'4 7.9
2017-Dec-10 01:00N 49°18' W 123°02'0 0.1
2017-Dec-10 00:28N 49°18' W 123°02'0 0.0
2017-Dec-09 23:58N 49°18' W 123°02'0 0.0
2017-Dec-09 23:28N 49°18' W 123°02'0 0.0
2017-Dec-09 22:58N 49°18' W 123°02'0 0.0
2017-Dec-09 22:28N 49°18' W 123°02'0 0.0
2017-Dec-09 21:58N 49°18' W 123°02'0 0.0
2017-Dec-09 21:28N 49°18' W 123°02'0 0.0
2017-Dec-09 20:58N 49°18' W 123°02'0 0.0
2017-Dec-09 20:28N 49°18' W 123°02'0 0.0
2017-Dec-09 19:58N 49°18' W 123°02'0 0.0
2017-Dec-09 19:28N 49°18' W 123°02'0 0.0
2017-Dec-09 18:55N 49°18' W 123°02'0 0.0
2017-Dec-09 18:28N 49°18' W 123°02'0 0.0
2017-Dec-09 17:58N 49°18' W 123°02'0 0.0
2017-Dec-09 17:28N 49°18' W 123°02'0 0.0
2017-Dec-09 16:58N 49°18' W 123°02'0 0.0
2017-Dec-09 16:28N 49°18' W 123°02'0 0.0
2017-Dec-09 15:58N 49°18' W 123°02'0 0.0
2017-Dec-09 15:28N 49°18' W 123°02'0 0.0
2017-Dec-09 14:58N 49°18' W 123°02'0 0.0
2017-Dec-09 14:28N 49°18' W 123°02'0 0.0
2017-Dec-09 13:58N 49°18' W 123°02'0 0.0
2017-Dec-09 13:28N 49°18' W 123°02'0 0.0
2017-Dec-09 12:58N 49°18' W 123°02'0 0.0
2017-Dec-09 12:28N 49°18' W 123°02'0 0.0
2017-Dec-09 11:58N 49°18' W 123°02'0 0.0
2017-Dec-09 11:28N 49°18' W 123°02'0 0.0
2017-Dec-09 10:58N 49°18' W 123°02'0 0.0
2017-Dec-09 10:25N 49°18' W 123°02'0 0.0
2017-Dec-09 09:58N 49°18' W 123°02'0 0.0
2017-Dec-09 09:28N 49°18' W 123°02'0 0.0
2017-Dec-09 08:58N 49°18' W 123°02'0 0.0
2017-Dec-09 08:28N 49°18' W 123°02'0 0.0
2017-Dec-09 07:58N 49°18' W 123°02'0 0.0
2017-Dec-09 07:28N 49°18' W 123°02'0 0.0
2017-Dec-09 06:58N 49°18' W 123°02'0 0.0
2017-Dec-09 06:28N 49°18' W 123°02'0 0.0
2017-Dec-09 05:58N 49°18' W 123°02'0 0.0
2017-Dec-09 05:28N 49°18' W 123°02'0 0.0
2017-Dec-09 04:58N 49°18' W 123°02'0 0.0
2017-Dec-09 04:28N 49°18' W 123°02'0 0.0
2017-Dec-09 03:58N 49°18' W 123°02'0 0.0
2017-Dec-09 03:28N 49°18' W 123°02'0 0.0
2017-Dec-09 02:58N 49°18' W 123°02'0 0.0
2017-Dec-09 02:28N 49°18' W 123°02'0 0.1
2017-Dec-09 01:58N 49°18' W 123°02'0 0.1
2017-Dec-09 01:28N 49°18' W 123°02'0 0.0
2017-Dec-09 00:58N 49°18' W 123°02'0 0.0
2017-Dec-09 00:28N 49°18' W 123°02'0 0.0
2017-Dec-08 23:58N 49°18' W 123°02'0 0.0
2017-Dec-08 23:22N 49°18' W 123°02'0 0.0
2017-Dec-08 22:58N 49°18' W 123°02'0 0.0
2017-Dec-08 22:25N 49°18' W 123°02'0 0.0
2017-Dec-08 21:58N 49°18' W 123°02'0 0.0
2017-Dec-08 21:28N 49°18' W 123°02'0 0.0
2017-Dec-08 20:58N 49°18' W 123°02'0 0.0
2017-Dec-08 20:28N 49°18' W 123°02'0 0.0
2017-Dec-08 19:58N 49°18' W 123°02'0 0.0
2017-Dec-08 19:28N 49°18' W 123°02'0 0.5
2017-Dec-08 19:00N 49°18' W 123°02'2 3.4
2017-Dec-08 18:31N 49°18' W 123°05'3 6.2
2017-Dec-08 18:00N 49°19' W 123°09'4 7.4
2017-Dec-08 17:30N 49°18' W 123°15'1 1.4
2017-Dec-08 16:54N 49°18' W 123°14'0 0.1
2017-Dec-08 16:30N 49°18' W 123°14'0 0.1
2017-Dec-08 16:00N 49°18' W 123°14'0 0.1
2017-Dec-08 15:30N 49°18' W 123°14'0 0.0
2017-Dec-08 15:00N 49°18' W 123°14'0 0.0
2017-Dec-08 14:27N 49°17' W 123°14'0 0.0
2017-Dec-08 14:00N 49°17' W 123°14'0 0.1
2017-Dec-08 13:30N 49°17' W 123°14'0 0.1
2017-Dec-08 12:57N 49°18' W 123°14'0 0.0
2017-Dec-08 12:30N 49°17' W 123°14'0 0.0
2017-Dec-08 12:00N 49°17' W 123°14'0 0.1
2017-Dec-08 11:27N 49°18' W 123°14'0 0.0
2017-Dec-08 11:00N 49°17' W 123°14'0 0.0
2017-Dec-08 10:27N 49°17' W 123°14'0 0.0
2017-Dec-08 09:57N 49°17' W 123°14'0 0.1
2017-Dec-08 09:27N 49°17' W 123°14'0 0.1
2017-Dec-08 09:00N 49°18' W 123°14'0 0.0
2017-Dec-08 08:30N 49°18' W 123°14'0 0.1
2017-Dec-08 07:57N 49°18' W 123°14'0 0.1
2017-Dec-08 07:30N 49°18' W 123°14'0 0.1
2017-Dec-08 07:00N 49°18' W 123°14'0 0.1
2017-Dec-08 06:15N 49°18' W 123°14'0 0.0
2017-Dec-08 05:57N 49°18' W 123°14'0 0.0
2017-Dec-08 05:27N 49°18' W 123°14'0 0.0
2017-Dec-08 05:00N 49°18' W 123°14'0 0.1
2017-Dec-08 04:27N 49°18' W 123°14'0 0.1
2017-Dec-08 04:00N 49°18' W 123°14'0 0.1
2017-Dec-08 03:30N 49°18' W 123°14'0 0.0
2017-Dec-08 02:57N 49°18' W 123°14'0 0.1
2017-Dec-08 02:30N 49°18' W 123°14'0 0.0
2017-Dec-08 02:00N 49°18' W 123°14'0 0.0
2017-Dec-08 01:30N 49°18' W 123°14'0 0.0
2017-Dec-08 01:00N 49°18' W 123°14'0 0.1
2017-Dec-08 00:30N 49°18' W 123°14'0 0.1
2017-Dec-08 00:00N 49°18' W 123°14'0 0.1
2017-Dec-07 23:30N 49°18' W 123°14'0 0.1
2017-Dec-07 22:57N 49°18' W 123°14'0 0.1
2017-Dec-07 22:30N 49°18' W 123°14'0 0.0
2017-Dec-07 22:00N 49°18' W 123°14'0 0.0
2017-Dec-07 21:27N 49°18' W 123°14'0 0.0
2017-Dec-07 21:00N 49°18' W 123°14'0 0.0
2017-Dec-07 20:30N 49°18' W 123°14'0 0.0
2017-Dec-07 20:00N 49°18' W 123°14'0 0.1
2017-Dec-07 19:27N 49°18' W 123°14'0 0.1
2017-Dec-07 19:00N 49°18' W 123°14'0 0.1
2017-Dec-07 18:27N 49°18' W 123°14'0 0.0
2017-Dec-07 18:00N 49°18' W 123°14'0 0.0
2017-Dec-07 17:30N 49°18' W 123°14'0 0.0
2017-Dec-07 17:00N 49°18' W 123°14'0 0.0
2017-Dec-07 16:30N 49°18' W 123°14'0 0.1
2017-Dec-07 16:00N 49°18' W 123°14'0 0.1
2017-Dec-07 15:30N 49°18' W 123°14'0 0.1
2017-Dec-07 14:57N 49°18' W 123°14'0 0.0
2017-Dec-07 14:27N 49°18' W 123°14'0 0.0
2017-Dec-07 14:00N 49°18' W 123°14'0 0.0
2017-Dec-07 13:30N 49°18' W 123°14'0 0.0
2017-Dec-07 13:00N 49°17' W 123°14'0 0.0
2017-Dec-07 12:30N 49°17' W 123°14'0 0.0
2017-Dec-07 12:00N 49°18' W 123°14'0 0.0
2017-Dec-07 11:27N 49°18' W 123°14'0 0.1
2017-Dec-07 11:00N 49°17' W 123°14'0 0.0
2017-Dec-07 10:30N 49°17' W 123°14'0 0.0
2017-Dec-07 09:57N 49°17' W 123°14'0 0.2
2017-Dec-07 09:27N 49°17' W 123°14'0 0.1
2017-Dec-07 09:00N 49°17' W 123°14'0 0.1
2017-Dec-07 08:30N 49°17' W 123°14'0 0.2
2017-Dec-07 08:00N 49°17' W 123°14'0 0.2
2017-Dec-07 07:30N 49°17' W 123°14'0 0.1
2017-Dec-07 07:00N 49°18' W 123°14'0 0.0
2017-Dec-07 06:30N 49°18' W 123°14'0 0.0
2017-Dec-07 06:00N 49°17' W 123°14'0 0.0
2017-Dec-07 05:30N 49°18' W 123°14'0 0.0
2017-Dec-07 05:00N 49°17' W 123°14'0 0.1
2017-Dec-07 04:30N 49°18' W 123°14'0 0.0
2017-Dec-07 04:00N 49°18' W 123°14'0 0.0
2017-Dec-07 03:30N 49°18' W 123°14'0 0.1
2017-Dec-07 02:57N 49°18' W 123°14'0 0.0
2017-Dec-07 02:30N 49°18' W 123°14'0 0.0
2017-Dec-07 02:00N 49°18' W 123°14'0 0.0
2017-Dec-07 01:30N 49°18' W 123°14'0 0.0
2017-Dec-07 01:00N 49°18' W 123°14'0 0.1
2017-Dec-07 00:30N 49°18' W 123°14'0 0.0
2017-Dec-07 00:00N 49°18' W 123°14'0 0.0
2017-Dec-06 23:27N 49°18' W 123°14'0 0.0
2017-Dec-06 23:00N 49°18' W 123°14'0 0.1
2017-Dec-06 22:27N 49°17' W 123°14'0 0.1
2017-Dec-06 22:00N 49°18' W 123°14'0 0.0
2017-Dec-06 21:27N 49°18' W 123°14'0 0.1
2017-Dec-06 21:00N 49°18' W 123°14'  
2017-Dec-04 10:30N 49°17' W 123°14'0 0.0
2017-Dec-04 10:00N 49°17' W 123°14'0 0.0
2017-Dec-04 09:27N 49°17' W 123°14'0 0.0
2017-Dec-04 08:39N 49°17' W 123°14'0 0.0
2017-Dec-04 08:30N 49°17' W 123°14'0 0.0
2017-Dec-04 07:57N 49°17' W 123°14'0 0.0
2017-Dec-04 07:30N 49°17' W 123°14'0 0.0
2017-Dec-04 07:00N 49°18' W 123°14'0 0.0
2017-Dec-04 06:30N 49°18' W 123°14'0 0.1
2017-Dec-04 06:00N 49°17' W 123°14'0 0.0
2017-Dec-04 05:30N 49°17' W 123°14'0 0.1
2017-Dec-04 05:00N 49°17' W 123°14'0 0.4
2017-Dec-04 04:30N 49°18' W 123°14'0 0.2
2017-Dec-04 03:57N 49°18' W 123°14'0 0.1
2017-Dec-04 03:27N 49°18' W 123°14'0 0.1
2017-Dec-04 02:51N 49°18' W 123°14'0 0.0
2017-Dec-04 02:27N 49°18' W 123°14'0 0.1
2017-Dec-04 02:00N 49°18' W 123°14'0 0.0
2017-Dec-04 01:30N 49°18' W 123°14'0 0.0
2017-Dec-04 01:00N 49°18' W 123°14'0 0.2
2017-Dec-04 00:24N 49°17' W 123°14'0 0.2
2017-Dec-03 23:51N 49°17' W 123°14'0 0.1
2017-Dec-03 23:27N 49°17' W 123°14'0 0.1
2017-Dec-03 22:57N 49°17' W 123°14'0 0.0
2017-Dec-03 22:24N 49°17' W 123°14'0 0.0
2017-Dec-03 21:57N 49°17' W 123°14'0 0.1
2017-Dec-03 21:30N 49°17' W 123°14'0 0.0
2017-Dec-03 21:00N 49°17' W 123°14'0 0.0
2017-Dec-03 20:21N 49°17' W 123°14'0 0.1
2017-Dec-03 20:00N 49°17' W 123°14'0 0.0
2017-Dec-03 19:30N 49°17' W 123°14'0 0.1
2017-Dec-03 18:57N 49°17' W 123°14'0 0.0
2017-Dec-03 18:27N 49°17' W 123°14'0 0.0
2017-Dec-03 17:51N 49°17' W 123°14'0 0.0
2017-Dec-03 17:27N 49°17' W 123°14'0 0.0
2017-Dec-03 17:00N 49°17' W 123°14'0 0.0
2017-Dec-03 16:30N 49°17' W 123°14'0 0.1
2017-Dec-03 16:00N 49°17' W 123°14'0 0.1
2017-Dec-03 15:30N 49°17' W 123°14'0 0.1
2017-Dec-03 15:00N 49°17' W 123°14'0 0.0
2017-Dec-03 14:30N 49°17' W 123°14'0 0.0
2017-Dec-03 14:00N 49°17' W 123°14'0 0.1
2017-Dec-03 13:30N 49°17' W 123°14'0 0.1
2017-Dec-03 13:00N 49°18' W 123°14'0 0.0
2017-Dec-03 12:24N 49°18' W 123°14'0 0.1
2017-Dec-03 11:57N 49°18' W 123°14'0 0.1
2017-Dec-03 11:27N 49°17' W 123°14'0 0.1
2017-Dec-03 11:00N 49°17' W 123°14'0 0.0
2017-Dec-03 10:30N 49°17' W 123°14'0 0.1
2017-Dec-03 10:00N 49°17' W 123°14'0 0.1
2017-Dec-03 09:21N 49°17' W 123°14'0 0.0
2017-Dec-03 08:57N 49°17' W 123°14'0 0.0
2017-Dec-03 08:30N 49°17' W 123°14'0 0.0
2017-Dec-03 07:57N 49°17' W 123°14'0 0.0
2017-Dec-03 07:30N 49°17' W 123°14'0 0.0
2017-Dec-03 07:00N 49°18' W 123°14'0 0.1
2017-Dec-03 06:30N 49°17' W 123°14'0 0.0
2017-Dec-03 06:00N 49°17' W 123°14'0 0.0
2017-Dec-03 05:30N 49°17' W 123°14'0 0.0
2017-Dec-03 05:00N 49°17' W 123°14'0 0.1
2017-Dec-03 04:24N 49°17' W 123°14'0 0.1
2017-Dec-03 04:00N 49°17' W 123°14'0 0.0
2017-Dec-03 03:30N 49°17' W 123°14'0 0.1
2017-Dec-03 02:57N 49°17' W 123°14'0 0.1
2017-Dec-03 02:09N 49°17' W 123°14'0 0.1
2017-Dec-03 01:57N 49°17' W 123°14'0 0.1
2017-Dec-03 01:18N 49°18' W 123°14'0 0.2
2017-Dec-03 00:51N 49°18' W 123°14'0 0.1
2017-Dec-03 00:30N 49°18' W 123°14'0 0.0
2017-Dec-02 23:57N 49°18' W 123°14'0 0.1
2017-Dec-02 23:18N 49°18' W 123°14'0 0.0
2017-Dec-02 23:00N 49°18' W 123°14'0 0.0
2017-Dec-02 22:27N 49°18' W 123°14'0 0.0
2017-Dec-02 22:00N 49°18' W 123°14'0 0.0
2017-Dec-02 21:30N 49°18' W 123°14'0 0.0
2017-Dec-02 20:57N 49°18' W 123°14'0 0.0
2017-Dec-02 20:27N 49°18' W 123°14'0 0.0
2017-Dec-02 19:57N 49°18' W 123°14'0 0.1
2017-Dec-02 19:30N 49°18' W 123°14'0 0.0
2017-Dec-02 18:57N 49°18' W 123°14'0 0.0
2017-Dec-02 18:30N 49°18' W 123°14'0 0.0
2017-Dec-02 17:57N 49°18' W 123°14'0 0.2
2017-Dec-02 17:30N 49°18' W 123°14'0 0.1
2017-Dec-02 16:57N 49°18' W 123°14'0 0.1
2017-Dec-02 16:27N 49°18' W 123°14'0 0.1
2017-Dec-02 16:00N 49°18' W 123°14'0 0.0
2017-Dec-02 15:27N 49°18' W 123°14'0 0.0
2017-Dec-02 14:57N 49°18' W 123°14'0 0.0
2017-Dec-02 14:30N 49°18' W 123°14'0 0.0
2017-Dec-02 13:57N 49°18' W 123°14'0 0.1
2017-Dec-02 13:27N 49°18' W 123°14'0 0.0
2017-Dec-02 13:00N 49°18' W 123°14'0 0.1
2017-Dec-02 12:30N 49°18' W 123°14'0 0.1
2017-Dec-02 12:00N 49°18' W 123°14'0 0.1
2017-Dec-02 11:27N 49°18' W 123°14'0 0.0
2017-Dec-02 10:57N 49°18' W 123°14'0 0.0
2017-Dec-02 10:27N 49°18' W 123°14'0 0.1
2017-Dec-02 10:00N 49°18' W 123°14'0 0.0
2017-Dec-02 09:27N 49°18' W 123°14'0 0.1
2017-Dec-02 09:00N 49°18' W 123°14'0 0.0
2017-Dec-02 08:27N 49°18' W 123°14'0 0.1
2017-Dec-02 08:00N 49°17' W 123°14'0 0.2
2017-Dec-02 07:30N 49°17' W 123°14'0 0.3
2017-Dec-02 07:00N 49°17' W 123°14'0 0.2
2017-Dec-02 06:30N 49°18' W 123°14'0 0.0
2017-Dec-02 06:00N 49°18' W 123°14'0 0.0
2017-Dec-02 05:30N 49°18' W 123°14'0 0.0
2017-Dec-02 04:57N 49°18' W 123°14'0 0.1
2017-Dec-02 04:27N 49°18' W 123°14'0 0.0
2017-Dec-02 04:00N 49°18' W 123°14'0 0.0
2017-Dec-02 03:24N 49°18' W 123°14'0 0.1
2017-Dec-02 03:00N 49°18' W 123°14'0 0.0
2017-Dec-02 02:30N 49°18' W 123°14'0 0.0
2017-Dec-02 01:57N 49°18' W 123°14'0 0.0
2017-Dec-02 01:30N 49°18' W 123°14'0 0.0
2017-Dec-02 01:00N 49°18' W 123°14'0 0.2
2017-Dec-02 00:27N 49°18' W 123°14'0 0.2
2017-Dec-02 00:00N 49°17' W 123°14'0 0.3
2017-Dec-01 23:30N 49°17' W 123°14'0 0.1
2017-Dec-01 22:57N 49°18' W 123°14'0 0.1
2017-Dec-01 22:30N 49°18' W 123°14'0 0.0
2017-Dec-01 22:00N 49°18' W 123°14'0 0.0
2017-Dec-01 21:30N 49°18' W 123°14'0 0.0
2017-Dec-01 21:00N 49°18' W 123°14'0 0.0
2017-Dec-01 20:30N 49°18' W 123°14'0 0.0
2017-Dec-01 20:00N 49°18' W 123°14'0 0.0
2017-Dec-01 19:30N 49°18' W 123°14'0 0.1
2017-Dec-01 19:00N 49°18' W 123°14'0 0.1
2017-Dec-01 18:27N 49°18' W 123°14'0 0.1
2017-Dec-01 18:00N 49°18' W 123°14'0 0.0
2017-Dec-01 17:27N 49°18' W 123°14'0 0.1
2017-Dec-01 17:00N 49°18' W 123°14'0 0.2
2017-Dec-01 16:30N 49°18' W 123°14'0 0.0
2017-Dec-01 16:00N 49°18' W 123°14'0 0.2
2017-Dec-01 15:30N 49°18' W 123°14'0 0.0
2017-Dec-01 15:00N 49°18' W 123°14'0 0.2
2017-Dec-01 14:30N 49°18' W 123°14'0 0.1
2017-Dec-01 14:00N 49°18' W 123°14'0 0.1
2017-Dec-01 13:27N 49°18' W 123°14'0 0.0
2017-Dec-01 12:57N 49°18' W 123°14'0 0.0
2017-Dec-01 12:30N 49°18' W 123°14'0 0.0
2017-Dec-01 12:00N 49°18' W 123°14'0 0.0
2017-Dec-01 11:30N 49°18' W 123°14'0 0.0
2017-Dec-01 11:00N 49°18' W 123°14'0 0.0
2017-Dec-01 10:30N 49°18' W 123°14'0 0.3
2017-Dec-01 10:00N 49°17' W 123°14'0 0.2
2017-Dec-01 09:30N 49°17' W 123°14'0 0.1
2017-Dec-01 09:00N 49°17' W 123°14'0 0.1
2017-Dec-01 08:30N 49°18' W 123°14'0 0.0
2017-Dec-01 07:57N 49°18' W 123°14'0 0.1
2017-Dec-01 07:30N 49°17' W 123°14'0 0.0
2017-Dec-01 06:48N 49°18' W 123°14'0 0.0
2017-Dec-01 06:30N 49°18' W 123°14'0 0.0
2017-Dec-01 05:57N 49°18' W 123°14'0 0.0
2017-Dec-01 05:30N 49°18' W 123°14'0 0.0
2017-Dec-01 04:57N 49°18' W 123°14'0 0.0
2017-Dec-01 04:30N 49°18' W 123°14'0 0.0
2017-Dec-01 03:51N 49°18' W 123°14'0 0.0
2017-Dec-01 03:27N 49°18' W 123°14'0 0.0
2017-Dec-01 02:57N 49°18' W 123°14'0 0.0
2017-Dec-01 02:24N 49°18' W 123°14'0 0.0
2017-Dec-01 01:48N 49°18' W 123°14'0 0.2
2017-Dec-01 01:30N 49°18' W 123°14'0 0.3
2017-Dec-01 00:51N 49°18' W 123°14'  
Track history (hours):
 
Tides and Currents Weather Stations Pressure Air Temp Water Temp Dewpoint Dewpoint Depression Visibility Wind Speed Wind Dir Waves Ship Positions

Prabhu Sakhawat

Last reported at 2017-Dec-11 00:28 UTC. Time now 2017-Dec-11 00:37 UTC.
Position N 48°57' W 123°44'.

Length 225 m; draft 10.2 m.

Type: Cargo ship. MMSI: 419099500.

Date/timePositionNaut miles runAvg speedWind from/ knotsBaromVisibWave heightAir tempDewpointWater temp
2017-Dec-11 00:28N 48°57' W 123°44'0 0.0
2017-Dec-10 23:56N 48°57' W 123°44'0 0.0
2017-Dec-10 23:15N 48°57' W 123°44'0 0.0
2017-Dec-10 22:56N 48°57' W 123°44'0 0.0
2017-Dec-10 22:29N 48°57' W 123°44'0 0.0
2017-Dec-10 21:54N 48°57' W 123°44'0 0.0
2017-Dec-10 21:17N 48°57' W 123°44'0 0.0
2017-Dec-10 20:32N 48°57' W 123°44'0 0.0
2017-Dec-10 20:29N 48°57' W 123°44'0 0.0
2017-Dec-10 19:58N 48°57' W 123°44'0 0.0
2017-Dec-10 19:20N 48°57' W 123°44'0 0.1
2017-Dec-10 19:00N 48°57' W 123°44'0 0.1
2017-Dec-10 18:27N 48°57' W 123°44'0 0.1
2017-Dec-10 17:58N 48°57' W 123°44'0 0.1
2017-Dec-10 17:30N 48°57' W 123°44'0 0.1
2017-Dec-10 16:59N 48°58' W 123°44'0 0.0
2017-Dec-10 16:29N 48°58' W 123°44'0 0.0
2017-Dec-10 16:00N 48°58' W 123°44'0 0.1
2017-Dec-10 15:30N 48°58' W 123°45'0 0.1
2017-Dec-10 15:00N 48°58' W 123°44'0 0.1
2017-Dec-10 14:29N 48°58' W 123°44'0 0.1
2017-Dec-10 13:57N 48°57' W 123°44'0 0.1
2017-Dec-10 13:30N 48°57' W 123°44'0 0.1
2017-Dec-10 12:59N 48°57' W 123°44'0 0.0
2017-Dec-10 12:30N 48°57' W 123°44'0 0.1
2017-Dec-10 11:55N 48°57' W 123°44'0 0.0
2017-Dec-10 11:30N 48°57' W 123°44'0 0.1
2017-Dec-10 11:00N 48°57' W 123°44'0 0.0
2017-Dec-10 10:29N 48°57' W 123°44'0 0.0
2017-Dec-10 09:56N 48°57' W 123°44'0 0.2
2017-Dec-10 09:29N 48°57' W 123°44'1 2.6
2017-Dec-10 08:59N 48°57' W 123°43'5 7.8
2017-Dec-10 08:24N 48°54' W 123°37'3 7.5
2017-Dec-10 08:00N 48°57' W 123°36'4 7.9
2017-Dec-10 07:30N 48°55' W 123°30'510.2
2017-Dec-10 07:00N 48°52' W 123°25'5 9.4
2017-Dec-10 06:30N 48°48' W 123°20'611.5
2017-Dec-10 06:00N 48°44' W 123°15'612.4
2017-Dec-10 05:30N 48°45' W 123°06'510.3
2017-Dec-10 05:00N 48°49' W 123°01'613.1
2017-Dec-10 04:30N 48°54' W 123°08'612.5
2017-Dec-10 04:00N 48°58' W 123°16'612.3
2017-Dec-10 03:30N 49°02' W 123°22'611.7
2017-Dec-10 03:00N 49°08' W 123°23'713.1
2017-Dec-10 02:30N 49°15' W 123°21'611.7
2017-Dec-10 02:00N 49°19' W 123°16'510.6
2017-Dec-10 01:30N 49°19' W 123°08'4 7.9
2017-Dec-10 01:00N 49°18' W 123°02'0 0.1
2017-Dec-10 00:28N 49°18' W 123°02'0 0.0
2017-Dec-09 23:58N 49°18' W 123°02'0 0.0
2017-Dec-09 23:28N 49°18' W 123°02'0 0.0
2017-Dec-09 22:58N 49°18' W 123°02'0 0.0
2017-Dec-09 22:28N 49°18' W 123°02'0 0.0
2017-Dec-09 21:58N 49°18' W 123°02'0 0.0
2017-Dec-09 21:28N 49°18' W 123°02'0 0.0
2017-Dec-09 20:58N 49°18' W 123°02'0 0.0
2017-Dec-09 20:28N 49°18' W 123°02'0 0.0
2017-Dec-09 19:58N 49°18' W 123°02'0 0.0
2017-Dec-09 19:28N 49°18' W 123°02'0 0.0
2017-Dec-09 18:55N 49°18' W 123°02'0 0.0
2017-Dec-09 18:28N 49°18' W 123°02'0 0.0
2017-Dec-09 17:58N 49°18' W 123°02'0 0.0
2017-Dec-09 17:28N 49°18' W 123°02'0 0.0
2017-Dec-09 16:58N 49°18' W 123°02'0 0.0
2017-Dec-09 16:28N 49°18' W 123°02'0 0.0
2017-Dec-09 15:58N 49°18' W 123°02'0 0.0
2017-Dec-09 15:28N 49°18' W 123°02'0 0.0
2017-Dec-09 14:58N 49°18' W 123°02'0 0.0
2017-Dec-09 14:28N 49°18' W 123°02'0 0.0
2017-Dec-09 13:58N 49°18' W 123°02'0 0.0
2017-Dec-09 13:28N 49°18' W 123°02'0 0.0
2017-Dec-09 12:58N 49°18' W 123°02'0 0.0
2017-Dec-09 12:28N 49°18' W 123°02'0 0.0
2017-Dec-09 11:58N 49°18' W 123°02'0 0.0
2017-Dec-09 11:28N 49°18' W 123°02'0 0.0
2017-Dec-09 10:58N 49°18' W 123°02'0 0.0
2017-Dec-09 10:25N 49°18' W 123°02'0 0.0
2017-Dec-09 09:58N 49°18' W 123°02'0 0.0
2017-Dec-09 09:28N 49°18' W 123°02'0 0.0
2017-Dec-09 08:58N 49°18' W 123°02'0 0.0
2017-Dec-09 08:28N 49°18' W 123°02'0 0.0
2017-Dec-09 07:58N 49°18' W 123°02'0 0.0
2017-Dec-09 07:28N 49°18' W 123°02'0 0.0
2017-Dec-09 06:58N 49°18' W 123°02'0 0.0
2017-Dec-09 06:28N 49°18' W 123°02'0 0.0
2017-Dec-09 05:58N 49°18' W 123°02'0 0.0
2017-Dec-09 05:28N 49°18' W 123°02'0 0.0
2017-Dec-09 04:58N 49°18' W 123°02'0 0.0
2017-Dec-09 04:28N 49°18' W 123°02'0 0.0
2017-Dec-09 03:58N 49°18' W 123°02'0 0.0
2017-Dec-09 03:28N 49°18' W 123°02'0 0.0
2017-Dec-09 02:58N 49°18' W 123°02'0 0.0
2017-Dec-09 02:28N 49°18' W 123°02'0 0.1
2017-Dec-09 01:58N 49°18' W 123°02'0 0.1
2017-Dec-09 01:28N 49°18' W 123°02'0 0.0
2017-Dec-09 00:58N 49°18' W 123°02'0 0.0
2017-Dec-09 00:28N 49°18' W 123°02'0 0.0
2017-Dec-08 23:58N 49°18' W 123°02'0 0.0
2017-Dec-08 23:22N 49°18' W 123°02'0 0.0
2017-Dec-08 22:58N 49°18' W 123°02'0 0.0
2017-Dec-08 22:25N 49°18' W 123°02'0 0.0
2017-Dec-08 21:58N 49°18' W 123°02'0 0.0
2017-Dec-08 21:28N 49°18' W 123°02'0 0.0
2017-Dec-08 20:58N 49°18' W 123°02'0 0.0
2017-Dec-08 20:28N 49°18' W 123°02'0 0.0
2017-Dec-08 19:58N 49°18' W 123°02'0 0.0
2017-Dec-08 19:28N 49°18' W 123°02'0 0.5
2017-Dec-08 19:00N 49°18' W 123°02'2 3.4
2017-Dec-08 18:31N 49°18' W 123°05'3 6.2
2017-Dec-08 18:00N 49°19' W 123°09'4 7.4
2017-Dec-08 17:30N 49°18' W 123°15'1 1.4
2017-Dec-08 16:54N 49°18' W 123°14'0 0.1
2017-Dec-08 16:30N 49°18' W 123°14'0 0.1
2017-Dec-08 16:00N 49°18' W 123°14'0 0.1
2017-Dec-08 15:30N 49°18' W 123°14'0 0.0
2017-Dec-08 15:00N 49°18' W 123°14'0 0.0
2017-Dec-08 14:27N 49°17' W 123°14'0 0.0
2017-Dec-08 14:00N 49°17' W 123°14'0 0.1
2017-Dec-08 13:30N 49°17' W 123°14'0 0.1
2017-Dec-08 12:57N 49°18' W 123°14'0 0.0
2017-Dec-08 12:30N 49°17' W 123°14'0 0.0
2017-Dec-08 12:00N 49°17' W 123°14'0 0.1
2017-Dec-08 11:27N 49°18' W 123°14'0 0.0
2017-Dec-08 11:00N 49°17' W 123°14'0 0.0
2017-Dec-08 10:27N 49°17' W 123°14'0 0.0
2017-Dec-08 09:57N 49°17' W 123°14'0 0.1
2017-Dec-08 09:27N 49°17' W 123°14'0 0.1
2017-Dec-08 09:00N 49°18' W 123°14'0 0.0
2017-Dec-08 08:30N 49°18' W 123°14'0 0.1
2017-Dec-08 07:57N 49°18' W 123°14'0 0.1
2017-Dec-08 07:30N 49°18' W 123°14'0 0.1
2017-Dec-08 07:00N 49°18' W 123°14'0 0.1
2017-Dec-08 06:15N 49°18' W 123°14'0 0.0
2017-Dec-08 05:57N 49°18' W 123°14'0 0.0
2017-Dec-08 05:27N 49°18' W 123°14'0 0.0
2017-Dec-08 05:00N 49°18' W 123°14'0 0.1
2017-Dec-08 04:27N 49°18' W 123°14'0 0.1
2017-Dec-08 04:00N 49°18' W 123°14'0 0.1
2017-Dec-08 03:30N 49°18' W 123°14'0 0.0
2017-Dec-08 02:57N 49°18' W 123°14'0 0.1
2017-Dec-08 02:30N 49°18' W 123°14'0 0.0
2017-Dec-08 02:00N 49°18' W 123°14'0 0.0
2017-Dec-08 01:30N 49°18' W 123°14'0 0.0
2017-Dec-08 01:00N 49°18' W 123°14'0 0.1
2017-Dec-08 00:30N 49°18' W 123°14'0 0.1
2017-Dec-08 00:00N 49°18' W 123°14'0 0.1
2017-Dec-07 23:30N 49°18' W 123°14'0 0.1
2017-Dec-07 22:57N 49°18' W 123°14'0 0.1
2017-Dec-07 22:30N 49°18' W 123°14'0 0.0
2017-Dec-07 22:00N 49°18' W 123°14'0 0.0
2017-Dec-07 21:27N 49°18' W 123°14'0 0.0
2017-Dec-07 21:00N 49°18' W 123°14'0 0.0
2017-Dec-07 20:30N 49°18' W 123°14'0 0.0
2017-Dec-07 20:00N 49°18' W 123°14'0 0.1
2017-Dec-07 19:27N 49°18' W 123°14'0 0.1
2017-Dec-07 19:00N 49°18' W 123°14'0 0.1
2017-Dec-07 18:27N 49°18' W 123°14'0 0.0
2017-Dec-07 18:00N 49°18' W 123°14'0 0.0
2017-Dec-07 17:30N 49°18' W 123°14'0 0.0
2017-Dec-07 17:00N 49°18' W 123°14'0 0.0
2017-Dec-07 16:30N 49°18' W 123°14'0 0.1
2017-Dec-07 16:00N 49°18' W 123°14'0 0.1
2017-Dec-07 15:30N 49°18' W 123°14'0 0.1
2017-Dec-07 14:57N 49°18' W 123°14'0 0.0
2017-Dec-07 14:27N 49°18' W 123°14'0 0.0
2017-Dec-07 14:00N 49°18' W 123°14'0 0.0
2017-Dec-07 13:30N 49°18' W 123°14'0 0.0
2017-Dec-07 13:00N 49°17' W 123°14'0 0.0
2017-Dec-07 12:30N 49°17' W 123°14'0 0.0
2017-Dec-07 12:00N 49°18' W 123°14'0 0.0
2017-Dec-07 11:27N 49°18' W 123°14'0 0.1
2017-Dec-07 11:00N 49°17' W 123°14'0 0.0
2017-Dec-07 10:30N 49°17' W 123°14'0 0.0
2017-Dec-07 09:57N 49°17' W 123°14'0 0.2
2017-Dec-07 09:27N 49°17' W 123°14'0 0.1
2017-Dec-07 09:00N 49°17' W 123°14'0 0.1
2017-Dec-07 08:30N 49°17' W 123°14'0 0.2
2017-Dec-07 08:00N 49°17' W 123°14'0 0.2
2017-Dec-07 07:30N 49°17' W 123°14'0 0.1
2017-Dec-07 07:00N 49°18' W 123°14'0 0.0
2017-Dec-07 06:30N 49°18' W 123°14'0 0.0
2017-Dec-07 06:00N 49°17' W 123°14'0 0.0
2017-Dec-07 05:30N 49°18' W 123°14'0 0.0
2017-Dec-07 05:00N 49°17' W 123°14'0 0.1
2017-Dec-07 04:30N 49°18' W 123°14'0 0.0
2017-Dec-07 04:00N 49°18' W 123°14'0 0.0
2017-Dec-07 03:30N 49°18' W 123°14'0 0.1
2017-Dec-07 02:57N 49°18' W 123°14'0 0.0
2017-Dec-07 02:30N 49°18' W 123°14'0 0.0
2017-Dec-07 02:00N 49°18' W 123°14'0 0.0
2017-Dec-07 01:30N 49°18' W 123°14'0 0.0
2017-Dec-07 01:00N 49°18' W 123°14'0 0.1
2017-Dec-07 00:30N 49°18' W 123°14'0 0.0
2017-Dec-07 00:00N 49°18' W 123°14'0 0.0
2017-Dec-06 23:27N 49°18' W 123°14'0 0.0
2017-Dec-06 23:00N 49°18' W 123°14'0 0.1
2017-Dec-06 22:27N 49°17' W 123°14'0 0.1
2017-Dec-06 22:00N 49°18' W 123°14'0 0.0
2017-Dec-06 21:27N 49°18' W 123°14'0 0.1
2017-Dec-06 21:00N 49°18' W 123°14'  
2017-Dec-04 10:30N 49°17' W 123°14'0 0.0
2017-Dec-04 10:00N 49°17' W 123°14'0 0.0
2017-Dec-04 09:27N 49°17' W 123°14'0 0.0
2017-Dec-04 08:39N 49°17' W 123°14'0 0.0
2017-Dec-04 08:30N 49°17' W 123°14'0 0.0
2017-Dec-04 07:57N 49°17' W 123°14'0 0.0
2017-Dec-04 07:30N 49°17' W 123°14'0 0.0
2017-Dec-04 07:00N 49°18' W 123°14'0 0.0
2017-Dec-04 06:30N 49°18' W 123°14'0 0.1
2017-Dec-04 06:00N 49°17' W 123°14'0 0.0
2017-Dec-04 05:30N 49°17' W 123°14'0 0.1
2017-Dec-04 05:00N 49°17' W 123°14'0 0.4
2017-Dec-04 04:30N 49°18' W 123°14'0 0.2
2017-Dec-04 03:57N 49°18' W 123°14'0 0.1
2017-Dec-04 03:27N 49°18' W 123°14'0 0.1
2017-Dec-04 02:51N 49°18' W 123°14'0 0.0
2017-Dec-04 02:27N 49°18' W 123°14'0 0.1
2017-Dec-04 02:00N 49°18' W 123°14'0 0.0
2017-Dec-04 01:30N 49°18' W 123°14'0 0.0
2017-Dec-04 01:00N 49°18' W 123°14'0 0.2
2017-Dec-04 00:24N 49°17' W 123°14'0 0.2
2017-Dec-03 23:51N 49°17' W 123°14'0 0.1
2017-Dec-03 23:27N 49°17' W 123°14'0 0.1
2017-Dec-03 22:57N 49°17' W 123°14'0 0.0
2017-Dec-03 22:24N 49°17' W 123°14'0 0.0
2017-Dec-03 21:57N 49°17' W 123°14'0 0.1
2017-Dec-03 21:30N 49°17' W 123°14'0 0.0
2017-Dec-03 21:00N 49°17' W 123°14'0 0.0
2017-Dec-03 20:21N 49°17' W 123°14'0 0.1
2017-Dec-03 20:00N 49°17' W 123°14'0 0.0
2017-Dec-03 19:30N 49°17' W 123°14'0 0.1
2017-Dec-03 18:57N 49°17' W 123°14'0 0.0
2017-Dec-03 18:27N 49°17' W 123°14'0 0.0
2017-Dec-03 17:51N 49°17' W 123°14'0 0.0
2017-Dec-03 17:27N 49°17' W 123°14'0 0.0
2017-Dec-03 17:00N 49°17' W 123°14'0 0.0
2017-Dec-03 16:30N 49°17' W 123°14'0 0.1
2017-Dec-03 16:00N 49°17' W 123°14'0 0.1
2017-Dec-03 15:30N 49°17' W 123°14'0 0.1
2017-Dec-03 15:00N 49°17' W 123°14'0 0.0
2017-Dec-03 14:30N 49°17' W 123°14'0 0.0
2017-Dec-03 14:00N 49°17' W 123°14'0 0.1
2017-Dec-03 13:30N 49°17' W 123°14'0 0.1
2017-Dec-03 13:00N 49°18' W 123°14'0 0.0
2017-Dec-03 12:24N 49°18' W 123°14'0 0.1
2017-Dec-03 11:57N 49°18' W 123°14'0 0.1
2017-Dec-03 11:27N 49°17' W 123°14'0 0.1
2017-Dec-03 11:00N 49°17' W 123°14'0 0.0
2017-Dec-03 10:30N 49°17' W 123°14'0 0.1
2017-Dec-03 10:00N 49°17' W 123°14'0 0.1
2017-Dec-03 09:21N 49°17' W 123°14'0 0.0
2017-Dec-03 08:57N 49°17' W 123°14'0 0.0
2017-Dec-03 08:30N 49°17' W 123°14'0 0.0
2017-Dec-03 07:57N 49°17' W 123°14'0 0.0
2017-Dec-03 07:30N 49°17' W 123°14'0 0.0
2017-Dec-03 07:00N 49°18' W 123°14'0 0.1
2017-Dec-03 06:30N 49°17' W 123°14'0 0.0
2017-Dec-03 06:00N 49°17' W 123°14'0 0.0
2017-Dec-03 05:30N 49°17' W 123°14'0 0.0
2017-Dec-03 05:00N 49°17' W 123°14'0 0.1
2017-Dec-03 04:24N 49°17' W 123°14'0 0.1
2017-Dec-03 04:00N 49°17' W 123°14'0 0.0
2017-Dec-03 03:30N 49°17' W 123°14'0 0.1
2017-Dec-03 02:57N 49°17' W 123°14'0 0.1
2017-Dec-03 02:09N 49°17' W 123°14'0 0.1
2017-Dec-03 01:57N 49°17' W 123°14'0 0.1
2017-Dec-03 01:18N 49°18' W 123°14'0 0.2
2017-Dec-03 00:51N 49°18' W 123°14'0 0.1
2017-Dec-03 00:30N 49°18' W 123°14'0 0.0
2017-Dec-02 23:57N 49°18' W 123°14'0 0.1
2017-Dec-02 23:18N 49°18' W 123°14'0 0.0
2017-Dec-02 23:00N 49°18' W 123°14'0 0.0
2017-Dec-02 22:27N 49°18' W 123°14'0 0.0
2017-Dec-02 22:00N 49°18' W 123°14'0 0.0
2017-Dec-02 21:30N 49°18' W 123°14'0 0.0
2017-Dec-02 20:57N 49°18' W 123°14'0 0.0
2017-Dec-02 20:27N 49°18' W 123°14'0 0.0
2017-Dec-02 19:57N 49°18' W 123°14'0 0.1
2017-Dec-02 19:30N 49°18' W 123°14'0 0.0
2017-Dec-02 18:57N 49°18' W 123°14'0 0.0
2017-Dec-02 18:30N 49°18' W 123°14'0 0.0
2017-Dec-02 17:57N 49°18' W 123°14'0 0.2
2017-Dec-02 17:30N 49°18' W 123°14'0 0.1
2017-Dec-02 16:57N 49°18' W 123°14'0 0.1
2017-Dec-02 16:27N 49°18' W 123°14'0 0.1
2017-Dec-02 16:00N 49°18' W 123°14'0 0.0
2017-Dec-02 15:27N 49°18' W 123°14'0 0.0
2017-Dec-02 14:57N 49°18' W 123°14'0 0.0
2017-Dec-02 14:30N 49°18' W 123°14'0 0.0
2017-Dec-02 13:57N 49°18' W 123°14'0 0.1
2017-Dec-02 13:27N 49°18' W 123°14'0 0.0
2017-Dec-02 13:00N 49°18' W 123°14'0 0.1
2017-Dec-02 12:30N 49°18' W 123°14'0 0.1
2017-Dec-02 12:00N 49°18' W 123°14'0 0.1
2017-Dec-02 11:27N 49°18' W 123°14'0 0.0
2017-Dec-02 10:57N 49°18' W 123°14'0 0.0
2017-Dec-02 10:27N 49°18' W 123°14'0 0.1
2017-Dec-02 10:00N 49°18' W 123°14'0 0.0
2017-Dec-02 09:27N 49°18' W 123°14'0 0.1
2017-Dec-02 09:00N 49°18' W 123°14'0 0.0
2017-Dec-02 08:27N 49°18' W 123°14'0 0.1
2017-Dec-02 08:00N 49°17' W 123°14'0 0.2
2017-Dec-02 07:30N 49°17' W 123°14'0 0.3
2017-Dec-02 07:00N 49°17' W 123°14'0 0.2
2017-Dec-02 06:30N 49°18' W 123°14'0 0.0
2017-Dec-02 06:00N 49°18' W 123°14'0 0.0
2017-Dec-02 05:30N 49°18' W 123°14'0 0.0
2017-Dec-02 04:57N 49°18' W 123°14'0 0.1
2017-Dec-02 04:27N 49°18' W 123°14'0 0.0
2017-Dec-02 04:00N 49°18' W 123°14'0 0.0
2017-Dec-02 03:24N 49°18' W 123°14'0 0.1
2017-Dec-02 03:00N 49°18' W 123°14'0 0.0
2017-Dec-02 02:30N 49°18' W 123°14'0 0.0
2017-Dec-02 01:57N 49°18' W 123°14'0 0.0
2017-Dec-02 01:30N 49°18' W 123°14'0 0.0
2017-Dec-02 01:00N 49°18' W 123°14'0 0.2
2017-Dec-02 00:27N 49°18' W 123°14'0 0.2
2017-Dec-02 00:00N 49°17' W 123°14'0 0.3
2017-Dec-01 23:30N 49°17' W 123°14'0 0.1
2017-Dec-01 22:57N 49°18' W 123°14'0 0.1
2017-Dec-01 22:30N 49°18' W 123°14'0 0.0
2017-Dec-01 22:00N 49°18' W 123°14'0 0.0
2017-Dec-01 21:30N 49°18' W 123°14'0 0.0
2017-Dec-01 21:00N 49°18' W 123°14'0 0.0
2017-Dec-01 20:30N 49°18' W 123°14'0 0.0
2017-Dec-01 20:00N 49°18' W 123°14'0 0.0
2017-Dec-01 19:30N 49°18' W 123°14'0 0.1
2017-Dec-01 19:00N 49°18' W 123°14'0 0.1
2017-Dec-01 18:27N 49°18' W 123°14'0 0.1
2017-Dec-01 18:00N 49°18' W 123°14'0 0.0
2017-Dec-01 17:27N 49°18' W 123°14'0 0.1
2017-Dec-01 17:00N 49°18' W 123°14'0 0.2
2017-Dec-01 16:30N 49°18' W 123°14'0 0.0
2017-Dec-01 16:00N 49°18' W 123°14'0 0.2
2017-Dec-01 15:30N 49°18' W 123°14'0 0.0
2017-Dec-01 15:00N 49°18' W 123°14'0 0.2
2017-Dec-01 14:30N 49°18' W 123°14'0 0.1
2017-Dec-01 14:00N 49°18' W 123°14'0 0.1
2017-Dec-01 13:27N 49°18' W 123°14'0 0.0
2017-Dec-01 12:57N 49°18' W 123°14'0 0.0
2017-Dec-01 12:30N 49°18' W 123°14'0 0.0
2017-Dec-01 12:00N 49°18' W 123°14'0 0.0
2017-Dec-01 11:30N 49°18' W 123°14'0 0.0
2017-Dec-01 11:00N 49°18' W 123°14'0 0.0
2017-Dec-01 10:30N 49°18' W 123°14'0 0.3
2017-Dec-01 10:00N 49°17' W 123°14'0 0.2
2017-Dec-01 09:30N 49°17' W 123°14'0 0.1
2017-Dec-01 09:00N 49°17' W 123°14'0 0.1
2017-Dec-01 08:30N 49°18' W 123°14'0 0.0
2017-Dec-01 07:57N 49°18' W 123°14'0 0.1
2017-Dec-01 07:30N 49°17' W 123°14'0 0.0
2017-Dec-01 06:48N 49°18' W 123°14'0 0.0
2017-Dec-01 06:30N 49°18' W 123°14'0 0.0
2017-Dec-01 05:57N 49°18' W 123°14'0 0.0
2017-Dec-01 05:30N 49°18' W 123°14'0 0.0
2017-Dec-01 04:57N 49°18' W 123°14'0 0.0
2017-Dec-01 04:30N 49°18' W 123°14'0 0.0
2017-Dec-01 03:51N 49°18' W 123°14'0 0.0
2017-Dec-01 03:27N 49°18' W 123°14'0 0.0
2017-Dec-01 02:57N 49°18' W 123°14'0 0.0
2017-Dec-01 02:24N 49°18' W 123°14'0 0.0
2017-Dec-01 01:48N 49°18' W 123°14'0 0.2
2017-Dec-01 01:30N 49°18' W 123°14'0 0.3
2017-Dec-01 00:51N 49°18' W 123°14'  

Dump ship's entire track history